Niagara Falls, NY

9:01 PM EDT on September 26, 2016 (GMT -0400)
37th st | | Change Station

Elev 577 ft 43.09 °N, 79.02 °W | Updated 5 minutes ago

Mostly Cloudy
Mostly Cloudy
58.3 °F
Feels Like 58.3 °F
N
2.7
Wind Variable Wind from South

Today
High -- | Low -- °F
--% Chance of Precip.
Yesterday
High -- | Low -- °F
Precip. -- in
Pressure 29.90 in
Visibility 10.0 miles
Clouds Mostly Cloudy 4300 ft
Dew Point 50 °F
Humidity 73%
Rainfall 0.66 in
Snow Depth Not available.
7:08 AM 7:05 PM
Waning Crescent, 15% visible
METAR KIAG 270053Z 26007KT 10SM BKN043 14/09 A2990 RMK AO2 SLP125 T01440089
Pressure 29.90 in
Visibility 10.0 miles
Clouds Mostly Cloudy 4300 ft
Dew Point 50 °F
Humidity 73%
Rainfall 0.66 in
Snow Depth Not available.
7:08 AM 7:05 PM
Waning Crescent, 15% visible
METAR KIAG 270053Z 26007KT 10SM BKN043 14/09 A2990 RMK AO2 SLP125 T01440089

10-Day Weather Forecast

Almanac

Astronomy

Sep. 26, 2016 Rise Set
Actual Time
Civil Twilight
Nautical Twilight
Astronomical Twilight
Moon
Length of Visible Light
Length of Day
Tomorrow will be .
, % of the Moon is Illuminated

Today's Extremes

State Highs State Lows

Community

WunderPhotos

Upload Photos

1,941,993 photos uploaded!

WunderBlog® & News

Nearby

Air Quality

  Air Quality AQ Index Pollutant
Not available.

Snow Depth

Station Depth Elevation

Earthquake Activity

City Distance Mag. Time & Date
Minimum magnitude displayed is 2.5.

Coastal Water Temperatures

Place Temperature

Stations

Nearby Weather Stations

Station Location Temp. Windchill Dew Point Humidity Wind Precip. Elev Updated Type
                   

Watches & Warnings

There are currently no watches in effect.